Time;durP1;ratioP1;P1;durP2;ratioP2;P2;SDS_P1;SDS_P2;PMS_P1;PMS_P2;Temp;Humidity;BMP_temperature;BMP_pressure;BME280_temperature;BME280_humidity;BME280_pressure;Samples;Min_cycle;Max_cycle;Signal;HPM_P1;HPM_P2
2023/12/31 00:01:38;;;;;;;0.70;0.70;;;6.70;99.90;;;;;;5033625;28;20228;-46
2023/12/31 00:04:05;;;;;;;1.17;1.00;;;6.70;99.90;;;;;;5033665;28;20265;-46
2023/12/31 00:06:31;;;;;;;2.83;1.00;;;6.70;99.90;;;;;;5033662;28;20183;-48
2023/12/31 00:08:57;;;;;;;5.07;1.03;;;6.70;99.90;;;;;;5033266;28;20192;-47
2023/12/31 00:11:22;;;;;;;2.23;1.10;;;6.70;99.90;;;;;;5016009;28;20198;-46
2023/12/31 00:13:52;;;;;;;3.40;0.97;;;6.70;99.90;;;;;;5015984;28;20188;-47
2023/12/31 00:16:23;;;;;;;2.00;1.00;;;6.80;99.90;;;;;;5033659;28;20323;-48
2023/12/31 00:19:26;;;;;;;1.93;0.90;;;6.90;99.90;;;;;;5034175;28;20553;-48
2023/12/31 00:21:52;;;;;;;1.10;1.00;;;6.90;99.90;;;;;;5033669;28;20179;-47
2023/12/31 00:24:21;;;;;;;2.57;1.30;;;6.90;99.90;;;;;;5033278;28;20177;-47
2023/12/31 00:26:47;;;;;;;1.53;1.00;;;6.90;99.90;;;;;;5033408;28;20266;-48
2023/12/31 00:29:12;;;;;;;2.13;1.00;;;6.90;99.90;;;;;;5033559;28;20661;-47
2023/12/31 00:31:41;;;;;;;2.30;1.30;;;7.00;99.90;;;;;;5033245;28;20200;-47
2023/12/31 00:34:08;;;;;;;1.10;1.00;;;7.00;99.90;;;;;;5033602;28;20185;-47
2023/12/31 00:36:37;;;;;;;1.73;1.00;;;7.00;99.90;;;;;;5032484;28;20693;-48
2023/12/31 00:39:09;;;;;;;1.80;1.30;;;7.00;99.90;;;;;;5033411;28;20184;-48
2023/12/31 00:41:35;;;;;;;3.50;1.30;;;7.10;99.90;;;;;;5039083;28;20201;-48
2023/12/31 00:44:03;;;;;;;1.10;1.00;;;7.10;99.90;;;;;;5038738;28;20562;-46
2023/12/31 00:46:32;;;;;;;2.57;1.17;;;7.30;99.90;;;;;;5039613;28;20656;-48
2023/12/31 00:49:01;;;;;;;2.43;1.37;;;7.40;99.90;;;;;;5034769;28;20185;-47
2023/12/31 00:51:27;;;;;;;2.73;1.30;;;7.40;99.90;;;;;;5034995;28;20197;-48
2023/12/31 00:53:56;;;;;;;2.73;1.50;;;7.50;99.90;;;;;;5015710;28;20189;-46
2023/12/31 00:56:22;;;;;;;3.10;1.33;;;7.50;99.90;;;;;;5033632;28;20205;-47
2023/12/31 00:58:47;;;;;;;2.17;0.87;;;7.60;99.90;;;;;;5033594;28;20236;-46
2023/12/31 01:01:13;;;;;;;3.83;1.20;;;7.60;99.90;;;;;;5033189;28;20607;-47
2023/12/31 01:03:45;;;;;;;1.10;0.80;;;7.70;99.90;;;;;;5015598;28;20542;-48
2023/12/31 01:06:15;;;;;;;2.00;1.07;;;7.80;99.90;;;;;;5033056;28;20257;-47
2023/12/31 01:08:40;;;;;;;1.70;1.30;;;7.80;99.90;;;;;;5015508;28;20185;-47
2023/12/31 01:11:07;;;;;;;1.40;1.10;;;7.80;99.90;;;;;;5034424;28;20285;-47
2023/12/31 01:13:32;;;;;;;1.67;1.27;;;7.80;99.90;;;;;;5034896;28;20560;-49
2023/12/31 01:15:58;;;;;;;1.83;1.20;;;7.80;99.90;;;;;;5036809;28;20204;-47
2023/12/31 01:18:31;;;;;;;1.77;1.13;;;7.80;99.90;;;;;;5036858;28;20621;-48
2023/12/31 01:20:57;;;;;;;2.40;1.20;;;7.80;99.90;;;;;;5036542;28;20200;-47
2023/12/31 01:23:26;;;;;;;1.27;1.10;;;7.70;99.90;;;;;;5036777;28;20651;-48
2023/12/31 01:25:52;;;;;;;2.87;1.40;;;7.70;99.90;;;;;;5036994;28;20205;-48
2023/12/31 01:28:17;;;;;;;3.00;1.30;;;7.60;99.90;;;;;;5036708;28;20641;-47
2023/12/31 01:30:44;;;;;;;1.80;1.20;;;7.50;99.90;;;;;;5018902;28;20228;-47
2023/12/31 01:33:16;;;;;;;1.73;1.17;;;7.50;99.90;;;;;;5036789;28;20271;-48
2023/12/31 01:35:41;;;;;;;3.03;1.20;;;7.40;99.90;;;;;;5036627;28;20597;-47
2023/12/31 01:38:08;;;;;;;2.17;1.20;;;7.40;99.90;;;;;;5019050;28;20185;-46
2023/12/31 01:40:34;;;;;;;4.57;1.20;;;7.40;99.90;;;;;;5036298;28;20196;-47
2023/12/31 01:43:03;;;;;;;2.07;1.30;;;7.40;99.90;;;;;;5036543;28;20182;-47
2023/12/31 01:45:33;;;;;;;1.50;1.20;;;7.40;99.90;;;;;;5036581;28;20185;-47
2023/12/31 01:48:05;;;;;;;2.63;1.40;;;7.50;99.90;;;;;;5036339;28;20189;-48
2023/12/31 01:50:31;;;;;;;1.20;1.10;;;7.50;99.90;;;;;;5017389;28;20216;-46
2023/12/31 01:52:58;;;;;;;1.30;1.13;;;7.50;99.90;;;;;;5034898;28;20208;-48
2023/12/31 01:55:24;;;;;;;3.30;1.30;;;7.60;99.90;;;;;;5034816;28;20196;-48
2023/12/31 01:58:03;;;;;;;1.80;1.10;;;7.60;99.90;;;;;;5035007;28;20187;-47
2023/12/31 02:00:32;;;;;;;2.03;1.20;;;7.60;99.90;;;;;;5017128;28;20554;-47
2023/12/31 02:02:59;;;;;;;2.63;1.40;;;7.60;99.90;;;;;;5017274;28;20637;-47
2023/12/31 02:05:25;;;;;;;1.50;1.10;;;7.70;99.90;;;;;;5034656;28;20177;-46
2023/12/31 02:07:51;;;;;;;1.17;1.07;;;7.70;99.90;;;;;;5034563;28;20256;-49
2023/12/31 02:10:23;;;;;;;3.13;1.13;;;7.70;99.90;;;;;;5035585;28;20593;-47
2023/12/31 02:12:49;;;;;;;1.33;1.00;;;7.70;99.90;;;;;;5034541;28;20260;-48
2023/12/31 02:15:32;;;;;;;0.90;0.83;;;7.60;99.90;;;;;;5034707;28;20292;-48
2023/12/31 02:18:00;;;;;;;2.80;0.90;;;7.70;99.90;;;;;;5017703;28;20177;-48
2023/12/31 02:20:29;;;;;;;1.97;1.10;;;7.60;99.90;;;;;;5000778;28;20193;-46
2023/12/31 02:23:08;;;;;;;4.97;1.40;;;7.60;99.90;;;;;;5034043;28;20276;-48
2023/12/31 02:25:44;;;;;;;1.70;1.40;;;7.60;99.90;;;;;;5034409;28;20177;-46
2023/12/31 02:28:13;;;;;;;2.03;0.97;;;7.60;99.90;;;;;;5034620;28;20239;-46
2023/12/31 02:30:39;;;;;;;3.40;1.27;;;7.60;99.90;;;;;;5016746;28;20251;-48
2023/12/31 02:39:55;;;;;;;3.13;0.97;;;7.50;99.90;;;;;;5033871;28;20279;-47
2023/12/31 02:42:22;;;;;;;2.43;1.20;;;7.50;99.90;;;;;;5034431;28;20633;-47
2023/12/31 02:44:48;;;;;;;5.30;2.07;;;7.40;99.90;;;;;;5033919;28;20648;-47
2023/12/31 02:47:24;;;;;;;6.10;2.13;;;7.40;99.90;;;;;;5034170;28;20223;-47
2023/12/31 02:49:51;;;;;;;4.47;1.67;;;7.50;99.90;;;;;;4447428;28;16893377;-48
2023/12/31 02:52:54;;;;;;;3.40;1.90;;;7.50;99.90;;;;;;5034849;28;20268;-47
2023/12/31 02:55:20;;;;;;;4.07;1.87;;;7.50;99.90;;;;;;5034990;28;20276;-46
2023/12/31 02:57:48;;;;;;;5.20;1.73;;;7.50;99.90;;;;;;5035633;28;20220;-47
2023/12/31 03:00:16;;;;;;;2.90;1.60;;;7.50;99.90;;;;;;5034632;28;20598;-48
2023/12/31 03:02:42;;;;;;;10.33;1.33;;;7.60;99.90;;;;;;5034648;28;20253;-48
2023/12/31 03:05:12;;;;;;;3.17;1.80;;;7.60;99.90;;;;;;5017365;28;20651;-47
2023/12/31 03:07:39;;;;;;;2.60;1.47;;;7.60;99.90;;;;;;5034731;28;20560;-47
2023/12/31 03:10:08;;;;;;;1.43;1.00;;;7.60;99.90;;;;;;5034352;28;20204;-47
2023/12/31 03:12:36;;;;;;;1.70;1.07;;;7.60;99.90;;;;;;5017453;28;20228;-48
2023/12/31 03:15:03;;;;;;;2.70;1.57;;;7.70;99.90;;;;;;5034403;28;20269;-47
2023/12/31 03:20:52;;;;;;;4.20;1.80;;;7.70;99.90;;;;;;5034444;28;20215;-47
2023/12/31 03:23:24;;;;;;;3.43;1.70;;;7.70;99.90;;;;;;5016604;28;20184;-48
2023/12/31 03:25:50;;;;;;;2.97;1.60;;;7.80;99.90;;;;;;5034327;28;20184;-47
2023/12/31 03:28:16;;;;;;;2.77;1.43;;;7.90;99.90;;;;;;5034332;28;20268;-48
2023/12/31 03:30:42;;;;;;;1.87;1.43;;;7.80;99.90;;;;;;5034134;28;20355;-48
2023/12/31 03:33:07;;;;;;;2.60;1.20;;;7.80;99.90;;;;;;5034147;28;20193;-48
2023/12/31 03:35:36;;;;;;;2.40;1.27;;;7.80;99.90;;;;;;5033835;28;20202;-47
2023/12/31 03:38:02;;;;;;;4.73;1.70;;;7.90;99.90;;;;;;5034342;28;20177;-46
2023/12/31 03:40:29;;;;;;;1.90;1.13;;;7.90;99.90;;;;;;5034543;28;20262;-47
2023/12/31 03:42:55;;;;;;;2.60;1.80;;;7.90;99.90;;;;;;5035064;28;20256;-47
2023/12/31 03:45:20;;;;;;;3.03;1.53;;;8.00;99.90;;;;;;5034193;28;20657;-48
2023/12/31 03:47:47;;;;;;;2.23;1.37;;;8.00;99.90;;;;;;5016667;28;20704;-47
2023/12/31 03:50:16;;;;;;;4.63;1.53;;;8.00;99.90;;;;;;5033818;28;20263;-47
2023/12/31 03:52:51;;;;;;;7.97;1.83;;;8.00;99.90;;;;;;5034092;28;20184;-47
2023/12/31 03:55:20;;;;;;;1.40;1.17;;;8.00;99.90;;;;;;5034184;28;20222;-47
2023/12/31 03:57:46;;;;;;;3.57;1.80;;;8.00;99.90;;;;;;5033693;28;20211;-48
2023/12/31 04:00:13;;;;;;;1.47;1.13;;;8.10;99.90;;;;;;5033521;28;20288;-48
2023/12/31 04:02:39;;;;;;;1.97;1.33;;;8.00;99.90;;;;;;5016030;28;20185;-48
2023/12/31 04:05:07;;;;;;;1.33;1.17;;;8.10;99.90;;;;;;5016090;28;20189;-47
2023/12/31 04:07:34;;;;;;;3.23;2.10;;;8.00;99.90;;;;;;5033866;28;20184;-47
2023/12/31 04:10:04;;;;;;;5.73;1.93;;;8.00;99.90;;;;;;5033782;28;20243;-47
2023/12/31 04:12:31;;;;;;;3.40;2.33;;;8.00;99.90;;;;;;5033018;28;20189;-48
2023/12/31 04:14:56;;;;;;;5.50;2.47;;;8.00;99.90;;;;;;5033368;28;20181;-47
2023/12/31 04:17:26;;;;;;;3.17;2.40;;;8.00;99.90;;;;;;5033320;28;20238;-47
2023/12/31 04:19:55;;;;;;;4.33;2.50;;;8.00;99.90;;;;;;5033371;28;20204;-47
2023/12/31 04:22:23;;;;;;;2.53;1.73;;;8.00;99.90;;;;;;5034007;28;20184;-46
2023/12/31 04:24:49;;;;;;;3.13;2.37;;;8.00;99.90;;;;;;5015147;28;20311;-46
2023/12/31 04:28:04;;;;;;;2.27;1.90;;;8.00;99.90;;;;;;5033649;28;20263;-46
2023/12/31 04:30:30;;;;;;;4.20;2.57;;;8.00;99.90;;;;;;5037260;28;20697;-48
2023/12/31 04:32:58;;;;;;;4.87;2.63;;;8.00;99.90;;;;;;5020216;28;20188;-47
2023/12/31 04:35:24;;;;;;;2.83;1.90;;;8.00;99.90;;;;;;5038027;28;20201;-47
2023/12/31 04:38:38;;;;;;;2.90;2.60;;;7.90;99.90;;;;;;5034360;28;20185;-47
2023/12/31 04:41:05;;;;;;;3.87;2.83;;;7.90;99.90;;;;;;5033594;28;20277;-47
2023/12/31 04:43:33;;;;;;;3.93;2.60;;;7.90;99.90;;;;;;5033490;28;20176;-48
2023/12/31 04:46:04;;;;;;;3.43;2.20;;;7.90;99.90;;;;;;5017200;28;20625;-47
2023/12/31 04:48:30;;;;;;;3.87;2.60;;;7.90;99.90;;;;;;5037139;28;20224;-46
2023/12/31 04:50:56;;;;;;;2.07;1.37;;;8.00;99.90;;;;;;5019546;28;20252;-47
2023/12/31 04:53:24;;;;;;;2.73;1.87;;;8.00;99.90;;;;;;5037090;28;20251;-48
2023/12/31 04:55:51;;;;;;;3.27;2.03;;;7.90;99.90;;;;;;5037333;28;20208;-47
2023/12/31 04:58:18;;;;;;;1.10;1.07;;;8.00;99.90;;;;;;5037062;28;20230;-47
2023/12/31 05:00:44;;;;;;;3.03;2.47;;;8.00;99.90;;;;;;5037021;28;20319;-47
2023/12/31 05:03:09;;;;;;;2.43;1.60;;;8.00;99.90;;;;;;5037368;28;20635;-48
2023/12/31 05:05:40;;;;;;;3.97;2.30;;;8.00;99.90;;;;;;5037048;28;20536;-48
2023/12/31 05:08:10;;;;;;;3.90;2.37;;;8.00;99.90;;;;;;5037136;28;20173;-49
2023/12/31 05:10:37;;;;;;;1.60;1.43;;;8.00;99.90;;;;;;5036909;28;20205;-48
2023/12/31 05:13:04;;;;;;;3.33;2.20;;;8.00;99.90;;;;;;5037841;28;20201;-48
2023/12/31 05:15:31;;;;;;;6.60;2.77;;;8.00;99.90;;;;;;5014240;28;20343;-48
2023/12/31 05:18:00;;;;;;;2.60;2.03;;;8.00;99.90;;;;;;5036674;28;20664;-47
2023/12/31 05:20:27;;;;;;;3.97;2.60;;;7.90;99.90;;;;;;5036682;28;20600;-48
2023/12/31 05:23:06;;;;;;;5.70;2.20;;;7.90;99.90;;;;;;5019310;28;20654;-48
2023/12/31 05:25:33;;;;;;;4.77;2.13;;;7.90;99.90;;;;;;5036688;28;20205;-48
2023/12/31 05:28:00;;;;;;;3.80;2.23;;;7.90;99.90;;;;;;5036483;28;20222;-47
2023/12/31 05:30:27;;;;;;;3.27;2.10;;;7.80;99.90;;;;;;5036392;28;20665;-47
2023/12/31 05:32:54;;;;;;;3.07;2.03;;;7.80;99.90;;;;;;5018796;28;20215;-49
2023/12/31 05:35:20;;;;;;;2.27;2.07;;;7.80;99.90;;;;;;5036539;28;20185;-48
2023/12/31 05:37:47;;;;;;;1.93;1.50;;;7.80;99.90;;;;;;5036512;28;20577;-49
2023/12/31 05:40:13;;;;;;;4.10;2.67;;;7.80;99.90;;;;;;5036272;28;20677;-47
2023/12/31 05:42:42;;;;;;;5.20;2.23;;;7.80;99.90;;;;;;5036235;28;20185;-47
2023/12/31 05:45:13;;;;;;;3.73;2.37;;;7.80;99.90;;;;;;5036132;28;20177;-47
2023/12/31 05:47:41;;;;;;;4.83;2.90;;;7.80;99.90;;;;;;5036664;28;20164;-49
2023/12/31 05:50:08;;;;;;;4.00;2.50;;;7.80;99.90;;;;;;5036055;28;20209;-50
2023/12/31 05:52:36;;;;;;;4.13;3.00;;;7.80;99.90;;;;;;5018329;28;20260;-48
2023/12/31 05:55:07;;;;;;;3.77;2.77;;;7.80;99.90;;;;;;5036277;28;20170;-47
2023/12/31 05:57:46;;;;;;;3.97;2.63;;;7.80;99.90;;;;;;5035763;28;20157;-49
2023/12/31 06:00:15;;;;;;;3.77;2.67;;;7.80;99.90;;;;;;5035700;28;20283;-48
2023/12/31 06:02:42;;;;;;;8.57;2.90;;;7.70;99.90;;;;;;5018322;28;20181;-47
2023/12/31 06:05:10;;;;;;;3.60;2.43;;;7.80;99.90;;;;;;5018981;28;20188;-47
2023/12/31 06:07:39;;;;;;;1.70;1.60;;;7.70;99.90;;;;;;5018699;28;20200;-49
2023/12/31 06:10:08;;;;;;;3.93;3.30;;;7.70;99.90;;;;;;5035965;28;20204;-48
2023/12/31 06:12:36;;;;;;;4.07;2.93;;;7.80;99.90;;;;;;5035915;28;20186;-48
2023/12/31 06:15:06;;;;;;;3.97;2.87;;;7.80;99.90;;;;;;5035820;28;20185;-48
2023/12/31 06:17:40;;;;;;;4.43;2.90;;;7.80;99.90;;;;;;5035508;28;20602;-49
2023/12/31 06:20:06;;;;;;;5.00;3.57;;;7.80;99.90;;;;;;5018019;28;20281;-47
2023/12/31 06:22:33;;;;;;;7.33;3.47;;;7.80;99.90;;;;;;5017794;28;20260;-48
2023/12/31 06:25:02;;;;;;;4.90;3.43;;;7.80;99.90;;;;;;5035346;28;20636;-48
2023/12/31 06:27:38;;;;;;;3.87;3.10;;;7.80;99.90;;;;;;5034167;28;20197;-47
2023/12/31 06:31:06;;;;;;;4.37;2.60;;;7.80;99.90;;;;;;5017499;28;20217;-48
2023/12/31 06:34:01;;;;;;;2.73;2.30;;;7.80;99.90;;;;;;5036027;28;20536;-49
2023/12/31 06:36:29;;;;;;;5.77;3.33;;;7.90;99.90;;;;;;5035480;28;20653;-47
2023/12/31 06:38:55;;;;;;;4.40;3.20;;;7.90;99.90;;;;;;5035431;28;20170;-46
2023/12/31 06:41:23;;;;;;;3.60;3.13;;;7.90;99.90;;;;;;5017551;28;20646;-46
2023/12/31 06:43:48;;;;;;;5.43;3.07;;;7.90;99.90;;;;;;5035566;28;20170;-47
2023/12/31 06:46:14;;;;;;;5.43;2.90;;;7.90;99.90;;;;;;5035659;28;20177;-46
2023/12/31 06:48:41;;;;;;;6.83;3.17;;;7.90;99.90;;;;;;5034916;28;20188;-47
2023/12/31 06:51:07;;;;;;;3.80;2.80;;;7.90;99.90;;;;;;5034702;28;20214;-48
2023/12/31 06:53:34;;;;;;;5.17;3.80;;;7.90;99.90;;;;;;5034891;28;20174;-47
2023/12/31 06:56:08;;;;;;;4.70;3.13;;;7.90;99.90;;;;;;5034786;28;20203;-48
2023/12/31 06:58:38;;;;;;;6.03;2.67;;;7.90;99.90;;;;;;5034816;28;20180;-47
2023/12/31 07:01:05;;;;;;;4.10;3.17;;;7.90;99.90;;;;;;5016844;28;20228;-47
2023/12/31 07:03:34;;;;;;;3.60;2.90;;;7.90;99.90;;;;;;5035285;28;20231;-47
2023/12/31 07:06:00;;;;;;;3.67;2.87;;;7.90;99.90;;;;;;5034625;28;20177;-49
2023/12/31 07:08:29;;;;;;;4.47;2.90;;;8.00;99.90;;;;;;5033968;28;20678;-48
2023/12/31 07:10:55;;;;;;;4.03;2.83;;;7.90;99.90;;;;;;5034590;28;20197;-48
2023/12/31 07:13:22;;;;;;;4.57;2.67;;;8.00;99.90;;;;;;5034836;28;20177;-46
2023/12/31 07:15:49;;;;;;;6.50;3.03;;;8.00;99.90;;;;;;5034403;28;20673;-47
2023/12/31 07:18:15;;;;;;;4.03;2.67;;;8.10;99.90;;;;;;5034715;28;20208;-48
2023/12/31 07:20:49;;;;;;;3.67;3.27;;;8.10;99.90;;;;;;5034539;28;20251;-47
2023/12/31 07:23:18;;;;;;;4.23;2.90;;;8.20;99.90;;;;;;5034567;28;20157;-47
2023/12/31 07:25:43;;;;;;;3.83;3.00;;;8.20;99.90;;;;;;5034300;28;20198;-47
2023/12/31 07:28:12;;;;;;;2.83;2.37;;;8.20;99.90;;;;;;5016955;28;20177;-47
2023/12/31 07:30:41;;;;;;;5.10;3.23;;;8.20;99.90;;;;;;5034204;28;20209;-47
2023/12/31 07:33:11;;;;;;;3.40;2.43;;;8.30;99.90;;;;;;5034153;28;20182;-47
2023/12/31 07:35:42;;;;;;;3.80;2.67;;;8.30;99.90;;;;;;5033593;28;20219;-48
2023/12/31 07:38:08;;;;;;;3.83;3.10;;;8.30;99.90;;;;;;5016358;28;20177;-48
2023/12/31 07:40:34;;;;;;;3.03;2.40;;;8.30;99.90;;;;;;5011676;28;20299;-47
2023/12/31 07:43:03;;;;;;;4.23;2.80;;;8.40;99.90;;;;;;5033940;28;20251;-47
2023/12/31 07:45:31;;;;;;;4.10;2.83;;;8.40;99.90;;;;;;5034011;28;20181;-46
2023/12/31 07:48:09;;;;;;;6.83;2.70;;;8.40;99.90;;;;;;5033855;28;20178;-47
2023/12/31 07:50:37;;;;;;;3.97;2.80;;;8.40;99.90;;;;;;5016794;28;20606;-46
2023/12/31 07:53:02;;;;;;;3.80;3.03;;;8.40;99.90;;;;;;5016659;28;20208;-48
2023/12/31 07:55:28;;;;;;;4.10;2.70;;;8.40;99.90;;;;;;5033680;28;20609;-48
2023/12/31 07:57:54;;;;;;;4.50;2.90;;;8.40;99.90;;;;;;5016274;28;20538;-48
2023/12/31 08:00:21;;;;;;;3.77;2.90;;;8.40;99.90;;;;;;5033664;28;20666;-47
2023/12/31 08:02:49;;;;;;;3.97;3.10;;;8.50;99.90;;;;;;5033658;28;20783;-47
2023/12/31 08:05:18;;;;;;;4.13;2.83;;;8.50;99.90;;;;;;5034171;28;20161;-49
2023/12/31 08:07:43;;;;;;;4.63;3.00;;;8.50;99.90;;;;;;5033776;28;20169;-48
2023/12/31 08:10:41;;;;;;;3.73;3.03;;;8.50;99.90;;;;;;5017115;28;20208;-48
2023/12/31 08:13:16;;;;;;;3.47;2.67;;;8.50;99.90;;;;;;5034573;28;20245;-49
2023/12/31 08:15:43;;;;;;;4.53;2.67;;;8.60;99.90;;;;;;5033874;28;20611;-48
2023/12/31 08:18:09;;;;;;;2.80;2.57;;;8.50;99.90;;;;;;5033716;28;20177;-47
2023/12/31 08:20:35;;;;;;;3.10;2.53;;;8.50;99.90;;;;;;5033599;28;20207;-48
2023/12/31 08:23:03;;;;;;;4.97;2.97;;;8.60;99.90;;;;;;5033384;28;20188;-48
2023/12/31 08:25:32;;;;;;;4.13;2.60;;;8.60;99.90;;;;;;5034354;28;20182;-48
2023/12/31 08:27:58;;;;;;;4.70;2.60;;;8.60;99.90;;;;;;5035049;28;20173;-47
2023/12/31 08:30:25;;;;;;;3.93;2.70;;;8.60;99.90;;;;;;5034869;28;20194;-48
2023/12/31 08:32:51;;;;;;;5.90;2.67;;;8.60;99.90;;;;;;5035012;28;20198;-48
2023/12/31 08:35:16;;;;;;;3.77;2.77;;;8.60;99.90;;;;;;5016298;28;20247;-47
2023/12/31 08:37:52;;;;;;;3.90;2.87;;;8.70;99.90;;;;;;5034062;28;20185;-48
2023/12/31 08:40:20;;;;;;;6.93;3.03;;;8.80;99.90;;;;;;5033415;28;20263;-47
2023/12/31 08:42:49;;;;;;;3.53;2.63;;;8.80;99.90;;;;;;5033616;28;20181;-47
2023/12/31 08:45:15;;;;;;;4.27;2.60;;;8.80;99.90;;;;;;5033357;28;20208;-48
2023/12/31 08:47:42;;;;;;;4.87;2.53;;;8.90;99.90;;;;;;5033404;28;20170;-47
2023/12/31 08:50:12;;;;;;;3.03;2.67;;;8.90;99.90;;;;;;5016130;28;20272;-47
2023/12/31 08:52:43;;;;;;;5.80;3.17;;;9.00;99.90;;;;;;5033140;28;20193;-48
2023/12/31 08:55:11;;;;;;;3.73;2.47;;;9.00;99.90;;;;;;5015359;28;20177;-46
2023/12/31 08:58:20;;;;;;;3.63;2.50;;;9.00;99.90;;;;;;5015708;28;20184;-47
2023/12/31 09:00:46;;;;;;;3.50;2.70;;;9.00;99.90;;;;;;5033487;28;20203;-48
2023/12/31 09:03:12;;;;;;;3.87;2.60;;;9.00;99.90;;;;;;5030778;28;20189;-47
2023/12/31 09:05:41;;;;;;;4.70;2.80;;;9.10;99.90;;;;;;5015547;28;20198;-47
2023/12/31 09:08:07;;;;;;;3.57;2.70;;;9.10;99.90;;;;;;5032858;28;20272;-47
2023/12/31 09:10:35;;;;;;;3.73;2.73;;;9.10;99.90;;;;;;5032981;28;20245;-47
2023/12/31 09:13:04;;;;;;;5.53;3.00;;;9.20;99.90;;;;;;5033013;28;20647;-47
2023/12/31 09:15:32;;;;;;;3.33;2.47;;;9.20;99.90;;;;;;5032866;28;20229;-47
2023/12/31 09:17:57;;;;;;;5.37;2.57;;;9.20;99.90;;;;;;5033258;28;20644;-47
2023/12/31 09:20:26;;;;;;;3.10;2.03;;;9.20;99.90;;;;;;5015149;28;20291;-48
2023/12/31 09:22:55;;;;;;;3.60;2.30;;;9.30;99.90;;;;;;5032825;28;20716;-48
2023/12/31 09:25:22;;;;;;;2.10;1.83;;;9.40;99.90;;;;;;5033327;28;20178;-47
2023/12/31 09:27:51;;;;;;;2.17;1.90;;;9.40;99.90;;;;;;5033299;28;20207;-49
2023/12/31 09:30:19;;;;;;;3.40;1.80;;;9.40;99.90;;;;;;5032936;28;20199;-48
2023/12/31 09:32:48;;;;;;;2.20;1.70;;;9.50;99.90;;;;;;5035195;28;20224;-48
2023/12/31 09:35:17;;;;;;;3.77;1.40;;;9.50;99.90;;;;;;5036162;28;20693;-47
2023/12/31 09:37:42;;;;;;;1.20;1.10;;;9.50;99.90;;;;;;5036341;28;20237;-48
2023/12/31 09:40:10;;;;;;;1.70;1.30;;;9.60;99.90;;;;;;5036257;28;20205;-47
2023/12/31 09:42:50;;;;;;;1.50;1.40;;;9.60;99.90;;;;;;5018700;28;20288;-47
2023/12/31 09:49:19;;;;;;;1.00;0.90;;;9.70;99.90;;;;;;5036052;28;20583;-48
2023/12/31 09:51:45;;;;;;;0.80;0.80;;;9.70;99.90;;;;;;5035876;28;20202;-47
2023/12/31 09:54:11;;;;;;;1.13;0.93;;;9.80;99.90;;;;;;5018690;28;20179;-48
2023/12/31 09:56:40;;;;;;;1.23;1.03;;;9.80;99.90;;;;;;5035870;28;20669;-46
2023/12/31 09:59:07;;;;;;;1.77;1.37;;;9.80;99.90;;;;;;5036142;28;20180;-48
2023/12/31 10:01:37;;;;;;;1.70;0.70;;;9.80;99.90;;;;;;5035860;28;20199;-48
2023/12/31 10:04:04;;;;;;;2.03;1.20;;;9.80;99.90;;;;;;5035769;28;20237;-48
2023/12/31 10:06:32;;;;;;;1.83;1.27;;;9.80;99.90;;;;;;5035800;28;20260;-47
2023/12/31 10:09:08;;;;;;;1.17;0.70;;;9.80;99.90;;;;;;5035642;28;20191;-46
2023/12/31 10:11:56;;;;;;;2.47;0.97;;;9.80;99.90;;;;;;5035221;28;20215;-48
2023/12/31 10:14:25;;;;;;;0.63;0.53;;;9.80;99.90;;;;;;5035893;28;20630;-47
2023/12/31 10:16:51;;;;;;;1.20;0.60;;;9.80;99.90;;;;;;5017786;28;20230;-47
2023/12/31 10:19:19;;;;;;;0.50;0.50;;;9.80;99.90;;;;;;5035808;28;20188;-47
2023/12/31 10:21:48;;;;;;;1.10;0.73;;;9.80;99.90;;;;;;5035550;28;20192;-48
2023/12/31 10:24:34;;;;;;;1.37;0.77;;;9.80;99.90;;;;;;5035474;28;20196;-48
2023/12/31 10:27:08;;;;;;;1.60;0.43;;;9.80;99.90;;;;;;5032461;28;20603;-47
2023/12/31 10:33:43;;;;;;;1.70;0.50;;;9.70;99.90;;;;;;5035393;28;20216;-48
2023/12/31 10:36:13;;;;;;;0.40;0.33;;;9.70;99.90;;;;;;5036146;28;20204;-47
2023/12/31 10:38:46;;;;;;;0.37;0.37;;;9.70;99.90;;;;;;5035603;28;20181;-43
2023/12/31 10:41:25;;;;;;;2.10;0.33;;;9.70;99.90;;;;;;5001317;28;20210;-43
2023/12/31 10:44:08;;;;;;;1.33;0.40;;;9.70;99.90;;;;;;5033500;28;20193;-43
2023/12/31 10:46:35;;;;;;;1.70;0.53;;;9.70;99.90;;;;;;5033511;28;20282;-44
2023/12/31 10:49:03;;;;;;;0.50;0.40;;;9.60;99.90;;;;;;5034910;28;20191;-42
2023/12/31 10:51:35;;;;;;;5.97;0.77;;;9.60;99.90;;;;;;5034697;28;20227;-43
2023/12/31 10:54:53;;;;;;;0.83;0.57;;;9.60;99.90;;;;;;5034925;28;20281;-43
2023/12/31 10:57:21;;;;;;;3.87;0.57;;;9.60;99.90;;;;;;5035375;28;20260;-42
2023/12/31 10:59:52;;;;;;;0.57;0.40;;;9.60;99.90;;;;;;5034428;28;20665;-44
2023/12/31 11:02:24;;;;;;;0.83;0.50;;;9.60;99.90;;;;;;5017538;28;20194;-43
2023/12/31 11:04:51;;;;;;;1.60;0.60;;;9.50;99.90;;;;;;5017637;28;20202;-42
2023/12/31 11:07:26;;;;;;;0.77;0.43;;;9.50;99.90;;;;;;5034363;28;20707;-42
2023/12/31 11:09:57;;;;;;;2.63;0.40;;;9.50;99.90;;;;;;5031759;28;20215;-45
2023/12/31 11:13:15;;;;;;;1.50;0.47;;;9.50;99.90;;;;;;5017587;28;20179;-44
2023/12/31 11:15:42;;;;;;;0.83;0.30;;;9.50;99.90;;;;;;5034443;28;20599;-42
2023/12/31 11:18:35;;;;;;;0.40;0.30;;;9.50;99.90;;;;;;5034488;28;20181;-44
2023/12/31 11:21:59;;;;;;;2.43;0.53;;;9.50;99.90;;;;;;5027003;28;20208;-42
2023/12/31 11:24:26;;;;;;;2.30;0.40;;;9.40;99.90;;;;;;4963858;28;20192;-43
2023/12/31 11:27:19;;;;;;;0.30;0.30;;;9.40;99.90;;;;;;5034262;28;20239;-42
2023/12/31 11:29:46;;;;;;;0.57;0.30;;;9.40;99.90;;;;;;5016711;28;20263;-43
2023/12/31 11:32:11;;;;;;;0.83;0.20;;;9.40;99.90;;;;;;5034455;28;20189;-42
2023/12/31 11:34:39;;;;;;;0.97;0.50;;;9.40;99.90;;;;;;5034188;28;20589;-42
2023/12/31 11:37:08;;;;;;;0.40;0.40;;;9.40;99.90;;;;;;5034394;28;20219;-43
2023/12/31 11:39:33;;;;;;;0.37;0.37;;;9.50;99.90;;;;;;5034321;28;20716;-44
2023/12/31 11:45:46;;;;;;;0.80;0.40;;;9.50;99.90;;;;;;5034096;28;20164;-44
2023/12/31 11:48:25;;;;;;;0.83;0.43;;;9.50;99.90;;;;;;5033840;28;20181;-42
2023/12/31 11:50:58;;;;;;;0.40;0.30;;;10.90;99.90;;;;;;5033734;28;20298;-43
2023/12/31 11:53:27;;;;;;;0.60;0.40;;;9.60;99.90;;;;;;5033982;28;20750;-42
2023/12/31 11:55:59;;;;;;;3.40;0.30;;;9.60;99.90;;;;;;5033666;28;20294;-43
2023/12/31 11:58:28;;;;;;;0.43;0.33;;;9.70;99.90;;;;;;5033939;28;20169;-42
2023/12/31 12:00:55;;;;;;;0.73;0.30;;;9.70;99.90;;;;;;5033707;28;20726;-44
2023/12/31 12:03:21;;;;;;;3.07;0.67;;;9.70;99.90;;;;;;5033848;28;20183;-42
2023/12/31 12:05:50;;;;;;;2.20;0.77;;;9.80;99.90;;;;;;5034165;28;20643;-42
2023/12/31 12:08:29;;;;;;;2.03;0.33;;;9.70;99.90;;;;;;5015923;28;20184;-42
2023/12/31 12:10:58;;;;;;;4.43;0.70;;;9.80;99.90;;;;;;5033912;28;20615;-44
2023/12/31 12:13:25;;;;;;;5.80;0.57;;;9.80;99.90;;;;;;5033803;28;20180;-42
2023/12/31 12:15:50;;;;;;;1.90;0.70;;;9.80;99.90;;;;;;5033438;28;20280;-44
2023/12/31 12:18:26;;;;;;;2.37;0.60;;;9.80;99.90;;;;;;5033470;28;20292;-43
2023/12/31 12:20:58;;;;;;;3.60;0.97;;;9.80;99.90;;;;;;5015603;28;20564;-43
2023/12/31 12:23:25;;;;;;;0.60;0.30;;;9.90;99.90;;;;;;5033383;28;20176;-44
2023/12/31 12:25:53;;;;;;;5.43;0.60;;;9.90;99.90;;;;;;5032865;28;20197;-42
2023/12/31 12:28:19;;;;;;;3.43;0.60;;;9.80;99.90;;;;;;5033617;28;20186;-43
2023/12/31 12:30:45;;;;;;;3.73;0.50;;;9.80;99.90;;;;;;5036009;28;20200;-43
2023/12/31 12:33:14;;;;;;;2.17;0.53;;;9.50;99.90;;;;;;5041179;28;20183;-42
2023/12/31 12:35:46;;;;;;;2.20;0.60;;;9.30;99.90;;;;;;5040744;28;20242;-44
2023/12/31 12:38:12;;;;;;;4.93;1.07;;;9.10;99.90;;;;;;5039287;28;20180;-45
2023/12/31 12:40:42;;;;;;;4.03;0.77;;;9.00;99.90;;;;;;5016947;28;20227;-42
2023/12/31 12:43:08;;;;;;;4.47;0.77;;;8.90;99.90;;;;;;5034049;28;20180;-43
2023/12/31 12:45:33;;;;;;;2.50;0.60;;;8.90;99.90;;;;;;5033593;28;20204;-44
2023/12/31 12:48:05;;;;;;;4.97;0.57;;;8.90;99.90;;;;;;5033575;28;20189;-42
2023/12/31 12:50:31;;;;;;;0.73;0.40;;;8.80;99.90;;;;;;5033521;28;20200;-42
2023/12/31 12:52:59;;;;;;;0.30;0.30;;;8.70;99.90;;;;;;5033136;28;20200;-43
2023/12/31 12:55:26;;;;;;;0.90;0.40;;;8.60;99.90;;;;;;5033510;28;20191;-43
2023/12/31 12:57:58;;;;;;;0.50;0.40;;;8.50;99.90;;;;;;5033516;28;20191;-44
2023/12/31 13:00:24;;;;;;;1.13;0.47;;;8.40;99.90;;;;;;5033361;28;20566;-43
2023/12/31 13:03:00;;;;;;;2.23;0.30;;;8.30;99.90;;;;;;5033477;28;20173;-44
2023/12/31 13:05:26;;;;;;;3.10;0.53;;;8.30;99.90;;;;;;5033702;28;20180;-44
2023/12/31 13:07:53;;;;;;;2.43;0.30;;;8.20;99.90;;;;;;5018625;28;20182;-43
2023/12/31 13:10:19;;;;;;;1.07;0.43;;;8.10;99.90;;;;;;5037813;28;20205;-44
2023/12/31 13:12:44;;;;;;;1.43;0.63;;;8.10;99.90;;;;;;5037602;28;20192;-46
2023/12/31 13:15:13;;;;;;;1.50;0.60;;;8.10;99.90;;;;;;5019120;28;20184;-46
2023/12/31 13:17:42;;;;;;;0.70;0.40;;;8.00;99.90;;;;;;5019064;28;20210;-47
2023/12/31 13:20:08;;;;;;;1.90;0.70;;;8.10;99.90;;;;;;5036816;28;20204;-47
2023/12/31 13:22:34;;;;;;;0.70;0.40;;;8.20;99.90;;;;;;5018971;28;20182;-47
2023/12/31 13:25:02;;;;;;;1.80;0.70;;;8.30;99.90;;;;;;5019083;28;20206;-47
2023/12/31 13:27:32;;;;;;;2.17;0.60;;;8.40;99.90;;;;;;5036498;28;20271;-47
2023/12/31 13:30:01;;;;;;;2.27;0.83;;;8.30;99.90;;;;;;5036584;28;20573;-48
2023/12/31 13:32:27;;;;;;;1.50;0.53;;;8.30;99.90;;;;;;5036698;28;20180;-47
2023/12/31 13:34:55;;;;;;;0.90;0.50;;;8.30;99.90;;;;;;5036443;28;20185;-47